createdAt,value
2017-11-17T00:00:37.924Z,84.40
2017-11-17T00:03:07.459Z,84.22
2017-11-17T00:05:36.932Z,81.50
2017-11-17T00:08:06.637Z,90.43
2017-11-17T00:10:36.277Z,82.80
2017-11-17T00:13:06.779Z,86.93
2017-11-17T00:15:36.437Z,88.03
2017-11-17T00:18:06.128Z,85.57
2017-11-17T00:20:36.576Z,85.95
2017-11-17T00:23:06.447Z,83.03
2017-11-17T00:25:36.100Z,76.60
2017-11-17T00:28:05.787Z,83.15
2017-11-17T00:30:36.214Z,87.55
2017-11-17T00:33:06.707Z,81.18
2017-11-17T00:35:36.364Z,81.22
2017-11-17T00:38:06.054Z,97.37
2017-11-17T00:40:35.687Z,92.47
2017-11-17T00:43:05.360Z,84.85
2017-11-17T00:45:35.616Z,94.97
2017-11-17T00:48:04.610Z,84.00
2017-11-17T00:50:34.266Z,91.25
2017-11-17T00:53:03.957Z,79.65
2017-11-17T00:55:33.599Z,80.53
2017-11-17T00:58:03.295Z,83.55
2017-11-17T01:00:32.952Z,82.82
2017-11-17T01:03:02.442Z,82.68
2017-11-17T01:05:32.880Z,80.10
2017-11-17T01:08:02.583Z,75.97
2017-11-17T01:10:33.021Z,81.10
2017-11-17T01:13:03.491Z,71.65
2017-11-17T01:15:33.148Z,80.90
2017-11-17T01:18:02.832Z,79.57
2017-11-17T01:20:32.546Z,78.65
2017-11-17T01:23:02.207Z,78.85
2017-11-17T01:25:31.896Z,85.70
2017-11-17T01:28:02.321Z,80.40
2017-11-17T01:30:32.156Z,79.07
2017-11-17T01:33:01.855Z,74.78
2017-11-17T01:35:32.262Z,84.15
2017-11-17T01:38:02.720Z,76.82
2017-11-17T01:40:31.857Z,73.25
2017-11-17T01:43:01.499Z,73.45
2017-11-17T01:45:32.039Z,80.28
2017-11-17T01:48:01.898Z,78.35
2017-11-17T01:50:31.737Z,73.22
2017-11-17T01:53:01.386Z,73.57
2017-11-17T01:55:31.086Z,73.25
2017-11-17T01:58:00.975Z,75.00
2017-11-17T02:00:29.961Z,83.55
2017-11-17T02:02:59.120Z,70.80
2017-11-17T02:05:28.227Z,68.80
2017-11-17T02:07:57.682Z,69.15
2017-11-17T02:10:28.064Z,68.65
2017-11-17T02:12:57.716Z,71.85
2017-11-17T02:15:28.166Z,74.82
2017-11-17T02:17:57.654Z,79.72
2017-11-17T02:20:27.426Z,70.87
2017-11-17T02:22:56.428Z,79.12
2017-11-17T02:25:25.577Z,76.35
2017-11-17T02:27:54.372Z,78.97
2017-11-17T02:30:23.164Z,78.60
2017-11-17T02:32:52.149Z,71.68
2017-11-17T02:35:21.587Z,76.12
2017-11-17T02:37:50.367Z,73.72
2017-11-17T02:40:19.196Z,75.53
2017-11-17T02:42:49.376Z,73.20
2017-11-17T02:45:18.433Z,84.55
2017-11-17T02:47:48.280Z,65.20
2017-11-17T02:50:17.078Z,68.32
2017-11-17T02:52:46.325Z,80.50
2017-11-17T02:55:15.891Z,66.57
2017-11-17T02:57:44.872Z,78.10
2017-11-17T03:00:13.920Z,76.78
2017-11-17T03:02:43.811Z,76.62
2017-11-17T03:05:13.065Z,73.35
2017-11-17T03:07:42.446Z,79.15
2017-11-17T03:10:11.275Z,75.18
2017-11-17T03:12:40.805Z,69.90
2017-11-17T03:15:10.252Z,72.68
2017-11-17T03:17:39.380Z,80.30
2017-11-17T03:20:09.066Z,73.40
2017-11-17T03:22:38.411Z,74.47
2017-11-17T03:25:08.189Z,80.00
2017-11-17T03:27:37.115Z,71.60
2017-11-17T03:30:06.121Z,78.95
2017-11-17T03:32:35.627Z,69.78
2017-11-17T03:35:04.879Z,77.28
2017-11-17T03:37:34.641Z,79.43
2017-11-17T03:40:05.550Z,75.07
2017-11-17T03:42:35.460Z,79.93
2017-11-17T03:45:05.120Z,85.53
2017-11-17T03:47:34.880Z,88.25
2017-11-17T03:50:03.955Z,83.57
2017-11-17T03:52:33.319Z,81.87
2017-11-17T03:55:03.538Z,90.80
2017-11-17T03:57:34.019Z,83.70
2017-11-17T04:00:03.498Z,76.15
2017-11-17T04:02:32.691Z,94.22
2017-11-17T04:05:03.160Z,87.47
2017-11-17T04:07:32.894Z,80.93
2017-11-17T04:10:03.063Z,79.50
2017-11-17T04:12:32.719Z,76.85
2017-11-17T04:15:02.085Z,75.12
2017-11-17T04:17:31.407Z,83.70
2017-11-17T04:20:00.524Z,86.60
2017-11-17T04:22:29.652Z,86.72
2017-11-17T04:25:00.258Z,83.85
2017-11-17T04:27:29.895Z,77.10
2017-11-17T04:30:00.360Z,76.78
2017-11-17T04:32:29.680Z,80.70
2017-11-17T04:34:59.331Z,79.80
2017-11-17T04:37:29.783Z,83.20
2017-11-17T04:39:59.421Z,77.65
2017-11-17T04:42:29.121Z,91.20
2017-11-17T04:44:58.778Z,99.57
2017-11-17T04:47:28.443Z,89.37
2017-11-17T04:49:58.144Z,86.97
2017-11-17T04:52:27.819Z,80.25
2017-11-17T04:54:57.931Z,92.65
2017-11-17T04:57:28.427Z,85.35
2017-11-17T04:59:58.117Z,86.05
2017-11-17T05:02:27.471Z,82.95
2017-11-17T05:04:57.549Z,82.95
2017-11-17T05:07:27.245Z,77.45
2017-11-17T05:09:56.563Z,90.55
2017-11-17T05:12:26.257Z,82.22
2017-11-17T05:14:55.960Z,84.20
2017-11-17T05:17:25.322Z,74.65
2017-11-17T05:19:56.536Z,75.40
2017-11-17T05:22:25.975Z,77.43
2017-11-17T05:24:56.438Z,75.55
2017-11-17T05:27:25.763Z,90.68
2017-11-17T05:29:55.416Z,75.05
2017-11-17T05:32:26.448Z,80.80
2017-11-17T05:34:56.151Z,78.80
2017-11-17T05:37:25.840Z,72.40
2017-11-17T05:39:55.510Z,67.72
2017-11-17T05:42:25.212Z,64.20
2017-11-17T05:44:54.861Z,66.72
2017-11-17T05:47:24.332Z,64.03
2017-11-17T05:49:53.985Z,65.00
2017-11-17T05:52:23.669Z,65.78
2017-11-17T05:54:53.334Z,64.82
2017-11-17T05:57:23.806Z,62.08
2017-11-17T05:59:53.474Z,62.65
2017-11-17T06:02:23.929Z,60.40
2017-11-17T06:04:53.391Z,52.67
2017-11-17T06:07:23.093Z,71.18
2017-11-17T06:09:52.785Z,63.55
2017-11-17T06:12:22.264Z,60.33
2017-11-17T06:14:51.923Z,64.35
2017-11-17T06:17:21.578Z,68.72
2017-11-17T06:19:51.263Z,64.53
2017-11-17T06:22:21.693Z,69.32
2017-11-17T06:24:52.152Z,69.78
2017-11-17T06:27:21.828Z,67.82
2017-11-17T06:29:52.307Z,56.35
2017-11-17T06:32:21.996Z,64.60
2017-11-17T06:34:51.696Z,61.70
2017-11-17T06:37:21.371Z,59.47
2017-11-17T06:39:51.491Z,58.08
2017-11-17T06:42:21.155Z,60.85
2017-11-17T06:44:50.844Z,57.28
2017-11-17T06:47:20.516Z,63.05
2017-11-17T06:49:50.228Z,64.00
2017-11-17T06:52:19.899Z,55.10
2017-11-17T06:54:49.221Z,50.38
2017-11-17T06:57:18.896Z,53.28
2017-11-17T06:59:48.568Z,48.55
2017-11-17T07:02:19.006Z,58.33
2017-11-17T07:04:48.493Z,54.10
2017-11-17T07:07:18.142Z,49.20
2017-11-17T07:09:48.125Z,55.45
2017-11-17T07:12:18.532Z,45.65
2017-11-17T07:14:48.226Z,48.60
2017-11-17T07:17:17.881Z,49.60
2017-11-17T07:19:47.563Z,48.72
2017-11-17T07:22:18.781Z,45.40
2017-11-17T07:24:48.428Z,46.63
2017-11-17T07:27:18.124Z,51.95
2017-11-17T07:29:47.784Z,48.97
2017-11-17T07:32:17.492Z,46.35
2017-11-17T07:34:47.148Z,46.40
2017-11-17T07:37:16.854Z,49.47
2017-11-17T07:39:45.895Z,45.55
2017-11-17T07:42:16.304Z,60.03
2017-11-17T07:44:46.781Z,42.50
2017-11-17T07:47:16.452Z,41.20
2017-11-17T07:49:46.607Z,40.05
2017-11-17T07:52:16.286Z,40.63
2017-11-17T07:54:46.395Z,36.05
2017-11-17T07:57:16.844Z,55.90
2017-11-17T07:59:46.165Z,46.90
2017-11-17T08:02:15.828Z,34.03
2017-11-17T08:04:45.631Z,44.22
2017-11-17T08:07:15.297Z,32.90
2017-11-17T08:09:44.319Z,27.80
2017-11-17T08:12:14.018Z,23.00
2017-11-17T08:14:43.835Z,24.08
2017-11-17T08:17:24.745Z,25.15
2017-11-17T08:19:54.618Z,26.95
2017-11-17T08:22:23.971Z,26.23
2017-11-17T08:24:54.037Z,34.22
2017-11-17T08:27:23.723Z,34.60
2017-11-17T08:29:53.236Z,95.47
2017-11-17T08:32:22.946Z,17.62
2017-11-17T08:34:52.590Z,19.12
2017-11-17T08:37:21.924Z,27.02
2017-11-17T08:39:51.837Z,20.50
2017-11-17T08:42:22.284Z,20.55
2017-11-17T08:44:51.971Z,21.98
2017-11-17T08:47:21.690Z,18.33
2017-11-17T08:49:52.143Z,21.17
2017-11-17T08:52:21.846Z,20.85
2017-11-17T08:54:51.519Z,22.20
2017-11-17T08:57:20.853Z,18.87
2017-11-17T08:59:50.983Z,25.08
2017-11-17T09:02:19.986Z,24.20
2017-11-17T09:04:49.526Z,20.37
2017-11-17T09:07:19.417Z,21.92
2017-11-17T09:09:49.059Z,22.45
2017-11-17T09:12:18.767Z,25.35
2017-11-17T09:14:48.422Z,26.02
2017-11-17T09:17:18.428Z,14.32
2017-11-17T09:19:48.835Z,20.37
2017-11-17T09:22:18.603Z,18.98
2017-11-17T09:24:47.627Z,21.58
2017-11-17T09:27:16.935Z,20.40
2017-11-17T09:29:45.970Z,16.95
2017-11-17T09:32:15.645Z,19.12
2017-11-17T09:34:45.295Z,17.50
2017-11-17T09:37:14.999Z,18.85
2017-11-17T09:39:44.660Z,24.27
2017-11-17T09:42:14.007Z,20.77
2017-11-17T09:44:43.047Z,17.23
2017-11-17T09:47:12.184Z,17.52
2017-11-17T09:49:42.655Z,18.05
2017-11-17T09:52:12.314Z,30.05
2017-11-17T09:54:41.306Z,16.60
2017-11-17T09:57:11.416Z,18.60
2017-11-17T09:59:41.212Z,18.12
2017-11-17T10:02:10.874Z,14.82
2017-11-17T10:04:40.335Z,23.33
2017-11-17T10:07:10.004Z,17.55
2017-11-17T10:09:39.608Z,24.37
2017-11-17T10:12:09.232Z,16.75
2017-11-17T10:14:38.553Z,23.80
2017-11-17T10:17:08.252Z,10.88
2017-11-17T10:19:37.574Z,17.33
2017-11-17T10:22:06.874Z,12.70
2017-11-17T10:24:36.559Z,20.02
2017-11-17T10:27:06.226Z,14.95
2017-11-17T10:29:36.655Z,14.73
2017-11-17T10:32:06.874Z,15.98
2017-11-17T10:34:37.615Z,17.15
2017-11-17T10:37:07.280Z,17.80
2017-11-17T10:39:36.672Z,17.23
2017-11-17T10:42:06.339Z,22.50
2017-11-17T10:44:35.916Z,21.35
2017-11-17T10:47:05.526Z,19.77
2017-11-17T10:49:35.349Z,10.60
2017-11-17T10:52:05.086Z,16.15
2017-11-17T10:54:34.776Z,22.83
2017-11-17T10:57:04.366Z,15.63
2017-11-17T10:59:34.036Z,17.25
2017-11-17T11:02:03.696Z,15.57
2017-11-17T11:04:34.175Z,13.85
2017-11-17T11:07:04.637Z,14.23
2017-11-17T11:09:33.851Z,15.50
2017-11-17T11:12:03.638Z,12.30
2017-11-17T11:14:33.338Z,11.90
2017-11-17T11:17:02.656Z,11.50
2017-11-17T11:19:33.335Z,16.55
2017-11-17T11:22:03.155Z,22.35
2017-11-17T11:24:32.806Z,24.73
2017-11-17T11:27:02.337Z,13.00
2017-11-17T11:29:32.620Z,14.57
2017-11-17T11:32:02.304Z,19.70
2017-11-17T11:34:31.645Z,21.80
2017-11-17T11:37:01.024Z,22.92
2017-11-17T11:39:30.978Z,21.00
2017-11-17T11:42:00.855Z,17.33
2017-11-17T11:44:30.253Z,18.70
2017-11-17T11:46:59.909Z,11.55
2017-11-17T11:49:29.581Z,12.73
2017-11-17T11:51:59.239Z,16.00
2017-11-17T11:54:29.752Z,17.15
2017-11-17T11:56:59.396Z,8.35
2017-11-17T11:59:29.080Z,10.00
2017-11-17T12:01:59.547Z,21.12
2017-11-17T12:04:29.203Z,6.78
2017-11-17T12:06:58.923Z,16.12
2017-11-17T12:09:29.345Z,11.23
2017-11-17T12:11:59.019Z,10.18
2017-11-17T12:14:28.692Z,13.60
2017-11-17T12:16:58.369Z,18.58
2017-11-17T12:19:28.054Z,10.70
2017-11-17T12:21:57.713Z,19.98
2017-11-17T12:24:27.425Z,11.52
2017-11-17T12:26:56.611Z,23.53
2017-11-17T12:29:26.799Z,7.83
2017-11-17T12:31:56.300Z,10.93
2017-11-17T12:34:25.725Z,12.73
2017-11-17T12:36:55.131Z,7.90
2017-11-17T12:39:25.291Z,10.67
2017-11-17T12:41:54.716Z,10.20
2017-11-17T12:44:24.118Z,12.40
2017-11-17T12:46:54.590Z,8.70
2017-11-17T12:49:24.292Z,22.45
2017-11-17T12:51:54.820Z,23.52
2017-11-17T12:54:24.529Z,19.23
2017-11-17T12:56:54.181Z,10.98
2017-11-17T12:59:23.949Z,14.10
2017-11-17T13:01:53.656Z,16.45
2017-11-17T13:04:23.345Z,12.20
2017-11-17T13:06:53.783Z,7.18
2017-11-17T13:09:24.221Z,18.15
2017-11-17T13:11:54.634Z,35.88
2017-11-17T13:14:25.191Z,16.17
2017-11-17T13:16:54.841Z,17.20
2017-11-17T13:19:24.527Z,26.62
2017-11-17T13:21:54.192Z,12.00
2017-11-17T13:24:24.638Z,17.98
2017-11-17T13:26:54.279Z,12.55
2017-11-17T13:29:23.960Z,15.77
2017-11-17T13:31:53.689Z,8.63
2017-11-17T13:34:23.180Z,5.85
2017-11-17T13:36:52.905Z,9.35
2017-11-17T13:39:22.610Z,11.45
2017-11-17T13:41:52.286Z,7.87
2017-11-17T13:44:21.790Z,10.88
2017-11-17T13:46:52.227Z,15.20
2017-11-17T13:49:22.909Z,13.20
2017-11-17T13:51:52.563Z,19.67
2017-11-17T13:54:23.026Z,7.68
2017-11-17T13:56:52.683Z,20.08
2017-11-17T13:59:22.390Z,16.08
2017-11-17T14:01:52.031Z,13.98
2017-11-17T14:04:21.736Z,22.85
2017-11-17T14:06:51.967Z,12.32
2017-11-17T14:09:21.663Z,16.90
2017-11-17T14:11:52.135Z,23.58
2017-11-17T14:14:21.779Z,10.30
2017-11-17T14:16:51.511Z,13.23
2017-11-17T14:19:21.176Z,21.62
2017-11-17T14:21:50.670Z,13.40
2017-11-17T14:24:20.128Z,16.23
2017-11-17T14:26:50.621Z,6.70
2017-11-17T14:29:20.323Z,17.17
2017-11-17T14:31:50.637Z,17.37
2017-11-17T14:34:21.209Z,31.20
2017-11-17T14:36:50.662Z,18.42
2017-11-17T14:39:20.369Z,16.70
2017-11-17T14:41:50.076Z,14.82
2017-11-17T14:44:19.921Z,19.58
2017-11-17T14:46:49.579Z,14.70
2017-11-17T14:49:20.075Z,10.52
2017-11-17T14:51:49.714Z,9.02
2017-11-17T14:54:21.724Z,10.73
2017-11-17T14:56:52.020Z,10.93
2017-11-17T14:59:21.710Z,12.27
2017-11-17T15:01:50.704Z,16.08
2017-11-17T15:04:20.453Z,13.05
2017-11-17T15:06:50.118Z,12.82
2017-11-17T15:09:20.601Z,12.13
2017-11-17T15:11:50.075Z,16.83
2017-11-17T15:14:19.572Z,14.38
2017-11-17T15:16:49.974Z,18.83
2017-11-17T15:19:19.761Z,17.80
2017-11-17T15:21:49.440Z,26.30
2017-11-17T15:24:18.436Z,33.05
2017-11-17T15:26:48.178Z,28.33
2017-11-17T15:29:17.194Z,20.23
2017-11-17T15:31:46.647Z,17.37
2017-11-17T15:34:16.327Z,15.02
2017-11-17T15:36:46.796Z,31.10
2017-11-17T15:39:16.455Z,15.57
2017-11-17T15:41:46.579Z,21.70
2017-11-17T15:44:17.035Z,19.05
2017-11-17T15:46:46.677Z,13.20
2017-11-17T15:49:15.998Z,18.20
2017-11-17T15:51:45.045Z,12.32
2017-11-17T15:54:14.699Z,12.32
2017-11-17T15:56:44.019Z,17.25
2017-11-17T15:59:13.752Z,13.90
2017-11-17T16:01:44.172Z,16.30
2017-11-17T16:04:14.707Z,18.27
2017-11-17T16:06:44.010Z,16.08
2017-11-17T16:09:14.127Z,14.60
2017-11-17T16:11:43.776Z,22.35
2017-11-17T16:14:13.511Z,22.73
2017-11-17T16:16:43.160Z,11.85
2017-11-17T16:19:12.861Z,16.05
2017-11-17T16:21:42.184Z,19.62
2017-11-17T16:24:12.774Z,19.20
2017-11-17T16:26:43.692Z,19.10
2017-11-17T16:29:13.118Z,15.48
2017-11-17T16:31:42.751Z,16.37
2017-11-17T16:34:12.428Z,13.77
2017-11-17T16:36:42.145Z,16.12
2017-11-17T16:39:11.820Z,14.63
2017-11-17T16:41:41.619Z,25.33
2017-11-17T16:44:11.845Z,24.50
2017-11-17T16:46:41.652Z,12.30
2017-11-17T16:49:11.214Z,19.02
2017-11-17T16:51:41.340Z,13.43
2017-11-17T16:54:10.838Z,26.35
2017-11-17T16:56:40.302Z,35.80
2017-11-17T16:59:09.316Z,18.05
2017-11-17T17:01:38.639Z,27.80
2017-11-17T17:04:08.313Z,29.40
2017-11-17T17:06:37.659Z,20.83
2017-11-17T17:09:07.364Z,19.23
2017-11-17T17:11:36.365Z,17.20
2017-11-17T17:14:05.803Z,28.83
2017-11-17T17:16:35.743Z,20.45
2017-11-17T17:19:05.199Z,26.00
2017-11-17T17:21:34.853Z,24.05
2017-11-17T17:24:04.494Z,35.33
2017-11-17T17:26:34.182Z,26.87
2017-11-17T17:29:03.834Z,20.62
2017-11-17T17:31:33.524Z,31.48
2017-11-17T17:34:03.176Z,15.00
2017-11-17T17:36:33.301Z,26.85
2017-11-17T17:39:02.899Z,19.80
2017-11-17T17:41:32.631Z,24.80
2017-11-17T17:44:02.744Z,25.40
2017-11-17T17:46:33.147Z,24.45
2017-11-17T17:49:02.836Z,26.90
2017-11-17T17:51:32.529Z,19.42
2017-11-17T17:54:01.872Z,27.23
2017-11-17T17:56:32.400Z,26.42
2017-11-17T17:59:01.747Z,33.22
2017-11-17T18:01:30.767Z,23.87
2017-11-17T18:04:00.232Z,40.58
2017-11-17T18:06:29.626Z,36.13
2017-11-17T18:08:59.718Z,29.00
2017-11-17T18:11:29.432Z,23.10
2017-11-17T18:13:58.418Z,32.50
2017-11-17T18:16:27.897Z,27.13
2017-11-17T18:18:57.634Z,31.87
2017-11-17T18:21:27.279Z,35.75
2017-11-17T18:23:57.743Z,30.62
2017-11-17T18:26:27.532Z,28.52
2017-11-17T18:28:58.286Z,21.48
2017-11-17T18:31:28.178Z,25.42
2017-11-17T18:33:58.027Z,20.50
2017-11-17T18:36:27.779Z,23.45
2017-11-17T18:38:57.553Z,27.70
2017-11-17T18:41:27.303Z,24.73
2017-11-17T18:43:56.988Z,24.35
2017-11-17T18:46:26.707Z,21.33
2017-11-17T18:48:56.388Z,24.08
2017-11-17T18:51:26.071Z,32.58
2017-11-17T18:53:55.745Z,26.10
2017-11-17T18:56:25.443Z,26.80
2017-11-17T18:58:55.433Z,35.90
2017-11-17T19:01:25.196Z,26.50
2017-11-17T19:03:55.021Z,27.17
2017-11-17T19:06:25.501Z,22.62
2017-11-17T19:08:55.153Z,24.92
2017-11-17T19:11:25.890Z,71.05
2017-11-17T19:13:56.353Z,28.60
2017-11-17T19:16:27.051Z,22.73
2017-11-17T19:18:56.659Z,39.42
2017-11-17T19:21:27.126Z,25.73
2017-11-17T19:23:56.766Z,20.27
2017-11-17T19:26:26.539Z,30.65
2017-11-17T19:28:56.225Z,21.75
2017-11-17T19:31:26.851Z,23.12
2017-11-17T19:33:56.739Z,25.60
2017-11-17T19:36:26.406Z,22.87
2017-11-17T19:38:56.097Z,22.67
2017-11-17T19:41:25.760Z,17.90
2017-11-17T19:43:55.475Z,27.55
2017-11-17T19:46:25.265Z,26.50
2017-11-17T19:48:55.207Z,18.40
2017-11-17T19:51:24.906Z,19.95
2017-11-17T19:53:54.619Z,28.12
2017-11-17T19:56:24.273Z,23.73
2017-11-17T19:58:54.730Z,31.30
2017-11-17T20:01:24.364Z,31.10
2017-11-17T20:03:54.594Z,26.65
2017-11-17T20:06:24.227Z,30.95
2017-11-17T20:08:54.788Z,21.35
2017-11-17T20:11:24.529Z,25.50
2017-11-17T20:13:54.219Z,27.55
2017-11-17T20:16:23.895Z,22.40
2017-11-17T20:18:53.588Z,28.10
2017-11-17T20:21:24.340Z,22.50
2017-11-17T20:23:54.852Z,23.12
2017-11-17T20:26:25.301Z,25.45
2017-11-17T20:28:55.764Z,25.27
2017-11-17T20:31:25.443Z,292.87
2017-11-17T20:33:55.470Z,22.25
2017-11-17T20:36:25.132Z,21.35
2017-11-17T20:38:54.818Z,23.45
2017-11-17T20:41:24.496Z,49.72
2017-11-17T20:43:54.140Z,26.40
2017-11-17T20:46:23.825Z,19.17
2017-11-17T20:48:54.892Z,25.25
2017-11-17T20:51:24.965Z,24.00
2017-11-17T20:53:55.560Z,32.83
2017-11-17T20:56:25.226Z,29.23
2017-11-17T20:58:54.959Z,26.30
2017-11-17T21:01:24.671Z,26.75
2017-11-17T21:03:54.321Z,23.70
2017-11-17T21:06:24.020Z,27.87
2017-11-17T21:08:53.673Z,25.27
2017-11-17T21:11:23.351Z,19.80
2017-11-17T21:13:53.846Z,19.42
2017-11-17T21:16:23.350Z,18.60
2017-11-17T21:18:53.022Z,30.95
2017-11-17T21:21:22.701Z,24.08
2017-11-17T21:23:52.814Z,23.62
2017-11-17T21:26:23.235Z,41.95
2017-11-17T21:28:53.217Z,21.15
2017-11-17T21:31:22.923Z,23.20
2017-11-17T21:33:52.613Z,23.70
2017-11-17T21:36:22.256Z,21.48
2017-11-17T21:38:51.953Z,29.27
2017-11-17T21:41:21.430Z,24.48
2017-11-17T21:43:51.108Z,23.60
2017-11-17T21:46:20.788Z,27.52
2017-11-17T21:48:50.473Z,19.90
2017-11-17T21:51:20.158Z,18.67
2017-11-17T21:53:50.568Z,21.65
2017-11-17T21:56:20.239Z,31.25
2017-11-17T21:58:49.891Z,27.85
2017-11-17T22:01:20.357Z,20.02
2017-11-17T22:03:50.017Z,33.13
2017-11-17T22:06:19.692Z,24.12
2017-11-17T22:08:49.372Z,21.37
2017-11-17T22:11:19.141Z,19.87
2017-11-17T22:13:48.803Z,20.17
2017-11-17T22:16:18.479Z,26.55
2017-11-17T22:18:48.899Z,24.25
2017-11-17T22:21:19.396Z,20.40
2017-11-17T22:23:49.029Z,17.58
2017-11-17T22:26:18.748Z,21.37
2017-11-17T22:28:48.430Z,25.02
2017-11-17T22:31:18.080Z,17.98
2017-11-17T22:33:48.684Z,21.37
2017-11-17T22:36:19.156Z,21.77
2017-11-17T22:38:48.974Z,18.80
2017-11-17T22:41:18.652Z,16.27
2017-11-17T22:43:48.327Z,15.10
2017-11-17T22:46:17.976Z,28.65
2017-11-17T22:48:48.431Z,27.85
2017-11-17T22:51:18.089Z,21.10
2017-11-17T22:53:49.307Z,21.48
2017-11-17T22:56:18.968Z,23.20
2017-11-17T22:58:48.644Z,18.87
2017-11-17T23:01:18.294Z,22.87
2017-11-17T23:03:48.534Z,21.17
2017-11-17T23:06:18.195Z,20.42
2017-11-17T23:08:47.904Z,28.85
2017-11-17T23:11:17.544Z,20.60
2017-11-17T23:13:47.219Z,18.27
2017-11-17T23:16:16.911Z,22.15
2017-11-17T23:18:46.577Z,18.45
2017-11-17T23:21:17.014Z,17.00
2017-11-17T23:23:47.459Z,18.25
2017-11-17T23:26:17.106Z,18.85
2017-11-17T23:28:46.784Z,20.55
2017-11-17T23:31:16.438Z,21.65
2017-11-17T23:33:46.180Z,18.08
2017-11-17T23:36:16.609Z,14.32
2017-11-17T23:38:46.710Z,25.92
2017-11-17T23:41:16.043Z,21.17
2017-11-17T23:43:45.740Z,14.80
2017-11-17T23:46:16.154Z,13.40
2017-11-17T23:48:46.625Z,26.33
2017-11-17T23:51:16.277Z,17.62
2017-11-17T23:53:45.590Z,22.10
2017-11-17T23:56:16.025Z,20.60
2017-11-17T23:58:46.464Z,17.37
